createdAt,value
2018-04-14T00:03:34.246Z,82.90
2018-04-14T00:07:37.552Z,83.40
2018-04-14T00:11:40.864Z,85.30
2018-04-14T00:15:43.396Z,85.30
2018-04-14T00:19:45.908Z,83.60
2018-04-14T00:23:49.217Z,83.30
2018-04-14T00:27:52.522Z,85.10
2018-04-14T00:31:55.819Z,84.40
2018-04-14T00:35:59.122Z,83.30
2018-04-14T00:40:02.449Z,85.20
2018-04-14T00:44:05.708Z,85.10
2018-04-14T00:48:08.238Z,84.40
2018-04-14T00:52:10.792Z,85.30
2018-04-14T00:56:13.331Z,85.30
2018-04-14T01:00:15.872Z,83.50
2018-04-14T01:04:19.167Z,85.10
2018-04-14T01:08:22.476Z,83.40
2018-04-14T01:12:25.783Z,84.20
2018-04-14T01:16:29.084Z,84.40
2018-04-14T01:20:32.379Z,85.30
2018-04-14T01:24:35.659Z,84.90
2018-04-14T01:28:38.204Z,84.70
2018-04-14T01:32:40.738Z,85.90
2018-04-14T01:36:43.281Z,85.00
2018-04-14T01:40:45.816Z,85.30
2018-04-14T01:44:48.324Z,85.80
2018-04-14T01:48:50.860Z,84.80
2018-04-14T01:52:53.400Z,85.80
2018-04-14T01:56:55.936Z,84.90
2018-04-14T02:00:58.511Z,86.40
2018-04-14T02:05:01.024Z,85.30
2018-04-14T02:09:03.569Z,87.40
2018-04-14T02:13:06.112Z,86.60
2018-04-14T02:17:09.415Z,85.70
2018-04-14T02:21:12.723Z,86.20
2018-04-14T02:25:15.252Z,86.10
2018-04-14T02:29:17.801Z,87.20
2018-04-14T02:33:20.345Z,85.90
2018-04-14T02:37:22.889Z,85.80
2018-04-14T02:41:25.424Z,84.60
2018-04-14T02:45:27.945Z,86.00
2018-04-14T02:49:30.486Z,85.40
2018-04-14T02:53:33.027Z,85.20
2018-04-14T02:57:35.568Z,85.10
2018-04-14T03:01:39.825Z,86.00
2018-04-14T03:05:43.135Z,85.30
2018-04-14T03:09:45.648Z,85.40
2018-04-14T03:13:48.188Z,87.20
2018-04-14T03:17:50.730Z,87.00
2018-04-14T03:21:53.279Z,84.70
2018-04-14T03:25:55.816Z,86.60
2018-04-14T03:29:59.101Z,87.80
2018-04-14T03:34:01.638Z,86.90
2018-04-14T03:38:04.186Z,87.60
2018-04-14T03:42:06.728Z,85.00
2018-04-14T03:46:09.266Z,84.90
2018-04-14T03:50:12.548Z,85.90
2018-04-14T03:54:15.088Z,86.10
2018-04-14T03:58:18.392Z,87.40
2018-04-14T04:02:20.937Z,87.10
2018-04-14T04:06:24.239Z,86.20
2018-04-14T04:10:27.519Z,84.90
2018-04-14T04:14:30.056Z,84.90
2018-04-14T04:18:44.484Z,85.30
2018-04-14T04:22:58.768Z,83.80
2018-04-14T04:27:01.302Z,87.40
2018-04-14T04:31:04.651Z,87.10
2018-04-14T04:35:07.961Z,86.10
2018-04-14T04:39:10.496Z,86.30
2018-04-14T04:43:13.032Z,87.40
2018-04-14T04:47:15.567Z,87.40
2018-04-14T04:51:18.092Z,86.10
2018-04-14T04:55:21.405Z,87.20
2018-04-14T04:59:23.941Z,87.50
2018-04-14T05:03:26.480Z,86.20
2018-04-14T05:07:29.020Z,85.80
2018-04-14T05:11:31.551Z,86.30
2018-04-14T05:15:34.084Z,88.40
2018-04-14T05:19:36.640Z,87.90
2018-04-14T05:23:39.212Z,87.20
2018-04-14T05:27:42.522Z,86.90
2018-04-14T05:31:45.065Z,86.80
2018-04-14T05:35:48.347Z,84.80
2018-04-14T05:39:50.894Z,84.70
2018-04-14T05:43:53.432Z,86.60
2018-04-14T05:47:55.983Z,84.10
2018-04-14T05:51:58.524Z,86.10
2018-04-14T05:56:01.813Z,84.20
2018-04-14T06:00:05.171Z,85.50
2018-04-14T06:04:07.688Z,85.80
2018-04-14T06:08:10.224Z,85.40
2018-04-14T06:12:12.768Z,84.80
2018-04-14T06:16:16.070Z,86.00
2018-04-14T06:20:19.388Z,87.70
2018-04-14T06:24:22.696Z,85.60
2018-04-14T06:28:25.231Z,85.50
2018-04-14T06:32:27.785Z,86.70
2018-04-14T06:36:30.323Z,84.10
2018-04-14T06:40:32.863Z,84.90
2018-04-14T06:44:35.419Z,84.50
2018-04-14T06:48:37.996Z,85.40
2018-04-14T06:52:40.545Z,84.20
2018-04-14T06:56:43.061Z,86.40
2018-04-14T07:00:46.371Z,86.70
2018-04-14T07:04:49.675Z,84.50
2018-04-14T07:08:52.215Z,85.10
2018-04-14T07:12:54.747Z,85.30
2018-04-14T07:16:58.046Z,87.00
2018-04-14T07:21:01.361Z,86.10
2018-04-14T07:25:03.901Z,86.00
2018-04-14T07:29:06.449Z,85.40
2018-04-14T07:33:08.983Z,85.90
2018-04-14T07:37:11.494Z,84.90
2018-04-14T07:41:14.040Z,84.40
2018-04-14T07:45:16.574Z,83.40
2018-04-14T07:49:19.113Z,83.70
2018-04-14T07:53:21.653Z,84.20
2018-04-14T07:57:24.216Z,83.00
2018-04-14T08:01:27.495Z,83.20
2018-04-14T08:05:30.029Z,83.20
2018-04-14T08:09:32.568Z,84.20
2018-04-14T08:13:35.106Z,83.40
2018-04-14T08:17:37.645Z,83.80
2018-04-14T08:21:40.931Z,84.40
2018-04-14T08:25:43.492Z,84.20
2018-04-14T08:29:46.453Z,83.90
2018-04-14T08:33:49.099Z,83.50
2018-04-14T08:37:51.653Z,84.00
2018-04-14T08:41:54.203Z,83.90
2018-04-14T08:45:56.746Z,83.70
2018-04-14T08:49:59.297Z,83.30
2018-04-14T08:54:01.903Z,83.60
2018-04-14T08:58:04.420Z,83.40
2018-04-14T09:02:06.936Z,83.50
2018-04-14T09:06:09.474Z,83.10
2018-04-14T09:10:12.013Z,83.10
2018-04-14T09:14:15.339Z,82.90
2018-04-14T09:18:17.877Z,83.00
2018-04-14T09:22:20.393Z,83.30
2018-04-14T09:26:22.960Z,83.60
2018-04-14T09:30:25.493Z,83.50
2018-04-14T09:34:28.043Z,83.00
2018-04-14T09:38:30.578Z,83.90
2018-04-14T09:42:33.105Z,83.70
2018-04-14T09:46:35.658Z,83.10
2018-04-14T09:50:38.960Z,82.80
2018-04-14T09:54:41.500Z,83.40
2018-04-14T09:58:44.040Z,82.90
2018-04-14T10:02:47.324Z,82.70
2018-04-14T10:06:49.877Z,82.70
2018-04-14T10:10:52.430Z,83.70
2018-04-14T10:14:54.981Z,82.50
2018-04-14T10:18:57.518Z,83.00
2018-04-14T10:23:00.036Z,83.00
2018-04-14T10:27:02.629Z,83.30
2018-04-14T10:31:05.141Z,82.20
2018-04-14T10:35:08.449Z,82.10
2018-04-14T10:39:11.860Z,82.20
2018-04-14T10:43:14.382Z,81.80
2018-04-14T10:47:16.928Z,81.60
2018-04-14T10:51:19.470Z,81.50
2018-04-14T10:55:22.014Z,81.40
2018-04-14T10:59:24.551Z,81.50
2018-04-14T11:03:27.179Z,81.00
2018-04-14T11:07:29.736Z,81.50
2018-04-14T11:11:33.035Z,81.20
2018-04-14T11:15:35.577Z,81.20
2018-04-14T11:19:38.107Z,81.00
2018-04-14T11:23:41.392Z,80.80
2018-04-14T11:27:43.935Z,80.80
2018-04-14T11:31:46.489Z,80.90
2018-04-14T11:35:49.824Z,80.60
2018-04-14T11:39:52.368Z,80.60
2018-04-14T11:43:54.887Z,79.80
2018-04-14T11:47:57.453Z,80.50
2018-04-14T11:52:00.752Z,80.50
2018-04-14T11:56:04.056Z,80.60
2018-04-14T12:00:07.359Z,80.30
2018-04-14T12:04:10.652Z,79.10
2018-04-14T12:08:13.961Z,80.10
2018-04-14T12:12:17.272Z,79.90
2018-04-14T12:16:20.578Z,79.30
2018-04-14T12:20:23.124Z,79.30
2018-04-14T12:24:25.664Z,79.60
2018-04-14T12:28:28.197Z,79.70
2018-04-14T12:32:30.741Z,79.50
2018-04-14T12:36:33.270Z,79.70
2018-04-14T12:40:35.848Z,79.50
2018-04-14T12:44:38.391Z,79.70
2018-04-14T12:48:41.128Z,79.40
2018-04-14T12:52:44.459Z,79.70
2018-04-14T12:56:47.768Z,79.80
2018-04-14T13:00:50.303Z,79.80
2018-04-14T13:04:52.852Z,79.20
2018-04-14T13:08:55.373Z,79.30
2018-04-14T13:12:57.926Z,78.80
2018-04-14T13:17:00.481Z,78.60
2018-04-14T13:21:03.026Z,79.30
2018-04-14T13:25:05.577Z,79.50
2018-04-14T13:29:08.101Z,78.10
2018-04-14T13:33:10.643Z,78.00
2018-04-14T13:37:13.180Z,78.60
2018-04-14T13:41:15.722Z,78.20
2018-04-14T13:45:18.274Z,77.50
2018-04-14T13:49:21.553Z,78.80
2018-04-14T13:53:24.094Z,78.80
2018-04-14T13:57:26.627Z,78.80
2018-04-14T14:01:29.168Z,78.90
2018-04-14T14:05:31.700Z,78.40
2018-04-14T14:09:34.232Z,79.10
2018-04-14T14:13:36.764Z,79.10
2018-04-14T14:17:39.303Z,78.90
2018-04-14T14:21:41.848Z,78.90
2018-04-14T14:25:44.392Z,78.80
2018-04-14T14:29:46.916Z,78.80
2018-04-14T14:33:50.229Z,79.10
2018-04-14T14:37:53.549Z,78.20
2018-04-14T14:41:56.089Z,78.30
2018-04-14T14:45:58.624Z,78.40
2018-04-14T14:50:06.739Z,78.10
2018-04-14T14:54:09.277Z,78.10
2018-04-14T14:58:11.816Z,78.40
2018-04-14T15:02:14.365Z,78.60
2018-04-14T15:06:17.679Z,78.50
2018-04-14T15:10:20.979Z,78.80
2018-04-14T15:14:24.268Z,76.60
2018-04-14T15:18:27.573Z,79.00
2018-04-14T15:22:30.875Z,77.00
2018-04-14T15:26:34.182Z,77.40
2018-04-14T15:30:37.491Z,77.40
2018-04-14T15:34:40.826Z,77.30
2018-04-14T15:38:44.096Z,77.60
2018-04-14T15:42:47.414Z,78.10
2018-04-14T15:46:49.956Z,78.10
2018-04-14T15:50:52.498Z,77.20
2018-04-14T15:54:55.020Z,77.00
2018-04-14T15:58:57.564Z,77.10
2018-04-14T16:03:00.097Z,77.60
2018-04-14T16:07:02.653Z,77.30
2018-04-14T16:11:05.216Z,77.90
2018-04-14T16:15:07.789Z,78.70
2018-04-14T16:19:10.507Z,78.90
2018-04-14T16:23:13.876Z,77.70
2018-04-14T16:27:17.185Z,78.10
2018-04-14T16:31:19.756Z,78.10
2018-04-14T16:35:22.304Z,76.30
2018-04-14T16:39:24.852Z,76.80
2018-04-14T16:43:27.395Z,78.40
2018-04-14T16:47:29.932Z,78.50
2018-04-14T16:51:32.472Z,78.30
2018-04-14T16:55:34.987Z,78.30
2018-04-14T16:59:37.525Z,76.70
2018-04-14T17:03:40.066Z,77.30
2018-04-14T17:07:42.610Z,76.10
2018-04-14T17:11:45.157Z,76.40
2018-04-14T17:15:47.675Z,76.10
2018-04-14T17:19:50.218Z,78.00
2018-04-14T17:23:52.771Z,76.80
2018-04-14T17:27:56.078Z,76.20
2018-04-14T17:31:58.637Z,76.10
2018-04-14T17:36:01.167Z,75.80
2018-04-14T17:40:03.716Z,76.20
2018-04-14T17:44:07.024Z,76.10
2018-04-14T17:48:10.329Z,76.70
2018-04-14T17:52:13.633Z,77.00
2018-04-14T17:56:16.946Z,77.00
2018-04-14T18:00:19.476Z,76.90
2018-04-14T18:04:22.039Z,76.90
2018-04-14T18:08:24.574Z,76.90
2018-04-14T18:12:27.148Z,76.40
2018-04-14T18:16:29.680Z,77.00
2018-04-14T18:20:32.195Z,76.70
2018-04-14T18:24:34.728Z,76.90
2018-04-14T18:28:37.264Z,77.00
2018-04-14T18:32:39.860Z,77.80
2018-04-14T18:36:42.397Z,77.10
2018-04-14T18:40:44.942Z,77.20
2018-04-14T18:44:47.482Z,77.00
2018-04-14T18:48:50.784Z,77.10
2018-04-14T18:52:53.328Z,77.10
2018-04-14T18:56:56.684Z,77.30
2018-04-14T19:00:59.180Z,77.30
2018-04-14T19:05:01.717Z,77.40
2018-04-14T19:09:04.247Z,77.70
2018-04-14T19:13:06.810Z,77.80
2018-04-14T19:17:10.176Z,78.00
2018-04-14T19:21:13.581Z,78.40
2018-04-14T19:25:16.927Z,77.80
2018-04-14T19:29:19.501Z,77.70
2018-04-14T19:33:22.056Z,77.90
2018-04-14T19:37:24.600Z,78.00
2018-04-14T19:41:27.125Z,78.30
2018-04-14T19:45:29.660Z,78.10
2018-04-14T19:49:32.204Z,78.20
2018-04-14T19:53:35.517Z,77.90
2018-04-14T19:57:38.059Z,77.90
2018-04-14T20:01:40.575Z,77.90
2018-04-14T20:05:43.892Z,78.10
2018-04-14T20:09:46.443Z,78.10
2018-04-14T20:13:48.996Z,78.10
2018-04-14T20:17:51.536Z,78.10
2018-04-14T20:21:54.841Z,78.40
2018-04-14T20:25:57.377Z,78.40
2018-04-14T20:29:59.920Z,78.10
2018-04-14T20:34:02.506Z,78.20
2018-04-14T20:38:05.048Z,78.10
2018-04-14T20:42:07.578Z,78.00
2018-04-14T20:46:10.103Z,78.40
2018-04-14T20:50:12.657Z,79.50
2018-04-14T20:54:15.194Z,78.60
2018-04-14T20:58:17.741Z,78.80
2018-04-14T21:02:20.300Z,78.40
2018-04-14T21:06:22.827Z,78.60
2018-04-14T21:10:25.371Z,79.00
2018-04-14T21:14:27.932Z,78.90
2018-04-14T21:18:31.240Z,78.70
2018-04-14T21:22:34.548Z,79.90
2018-04-14T21:26:37.829Z,79.00
2018-04-14T21:30:40.367Z,78.90
2018-04-14T21:34:42.917Z,78.50
2018-04-14T21:38:46.233Z,78.80
2018-04-14T21:42:49.535Z,78.40
2018-04-14T21:46:52.074Z,78.40
2018-04-14T21:50:54.623Z,78.70
2018-04-14T21:54:57.176Z,78.60
2018-04-14T21:59:00.486Z,78.80
2018-04-14T22:03:04.100Z,79.10
2018-04-14T22:07:07.385Z,79.10
2018-04-14T22:11:09.956Z,79.00
2018-04-14T22:15:12.512Z,79.30
2018-04-14T22:19:15.054Z,79.00
2018-04-14T22:23:18.370Z,79.40
2018-04-14T22:27:20.893Z,79.40
2018-04-14T22:31:23.435Z,79.10
2018-04-14T22:35:25.991Z,79.50
2018-04-14T22:39:28.526Z,78.90
2018-04-14T22:43:31.059Z,79.50
2018-04-14T22:47:33.580Z,78.70
2018-04-14T22:51:36.135Z,78.80
2018-04-14T22:55:42.203Z,79.20
2018-04-14T22:59:44.732Z,79.10
2018-04-14T23:03:47.263Z,79.20
2018-04-14T23:07:49.813Z,79.30
2018-04-14T23:11:52.339Z,78.80
2018-04-14T23:15:54.880Z,79.10
2018-04-14T23:19:57.416Z,79.40
2018-04-14T23:23:59.945Z,79.30
2018-04-14T23:28:02.480Z,79.10
2018-04-14T23:32:04.992Z,78.90
2018-04-14T23:36:07.525Z,79.00
2018-04-14T23:40:10.059Z,78.90
2018-04-14T23:44:12.591Z,79.20
2018-04-14T23:48:15.132Z,79.20
2018-04-14T23:52:17.648Z,79.40
2018-04-14T23:56:20.202Z,79.30
